Time;durP1;ratioP1;P1;durP2;ratioP2;P2;SDS_P1;SDS_P2;PMS_P1;PMS_P2;Temp;Humidity;BMP_temperature;BMP_pressure;BME280_temperature;BME280_humidity;BME280_pressure;Samples;Min_cycle;Max_cycle;Signal;HPM_P1;HPM_P2
2023/10/11 00:01:11;;;;;;;3.03;1.60;;;18.10;53.40;;;;;;5892791;24;20212;-85
2023/10/11 00:03:52;;;;;;;1.98;1.40;;;18.20;53.50;;;;;;5839122;24;20663;-85
2023/10/11 00:06:26;;;;;;;2.15;1.67;;;18.20;53.50;;;;;;5843114;24;20189;-84
2023/10/11 00:08:54;;;;;;;1.92;1.33;;;18.20;53.50;;;;;;5862738;24;20291;-84
2023/10/11 00:11:27;;;;;;;3.42;1.58;;;18.20;53.50;;;;;;5862107;24;20158;-85
2023/10/11 00:13:54;;;;;;;3.17;1.50;;;18.10;53.60;;;;;;5867000;24;20158;-84
2023/10/11 00:16:21;;;;;;;3.33;1.40;;;18.10;53.50;;;;;;5888904;24;20177;-84
2023/10/11 00:18:49;;;;;;;3.83;1.90;;;18.10;53.60;;;;;;5888593;24;20165;-84
2023/10/11 00:21:16;;;;;;;2.70;1.30;;;18.10;53.60;;;;;;5889200;24;20180;-84
2023/10/11 00:23:50;;;;;;;3.10;1.45;;;18.10;53.60;;;;;;5888215;24;20158;-85
2023/10/11 00:26:17;;;;;;;1.70;1.40;;;18.20;53.60;;;;;;5912970;24;20184;-84
2023/10/11 00:28:48;;;;;;;1.42;1.23;;;18.20;53.70;;;;;;5868025;24;20182;-85
2023/10/11 00:31:16;;;;;;;2.13;1.42;;;18.10;53.70;;;;;;5913719;24;20141;-85
2023/10/11 00:33:58;;;;;;;3.58;1.55;;;18.10;53.70;;;;;;5945023;24;20188;-88
2023/10/11 00:36:36;;;;;;;2.63;1.58;;;18.10;53.70;;;;;;5917145;24;20203;-85
2023/10/11 00:39:17;;;;;;;2.47;1.40;;;18.10;53.70;;;;;;5968690;24;20230;-85
2023/10/11 00:42:01;;;;;;;2.00;1.50;;;18.10;53.70;;;;;;5918965;24;20191;-86
2023/10/11 00:44:32;;;;;;;1.92;1.27;;;18.10;53.70;;;;;;5917859;24;20159;-86
2023/10/11 00:47:25;;;;;;;1.92;1.48;;;18.10;53.70;;;;;;5885008;24;20158;-88
2023/10/11 00:50:14;;;;;;;2.35;1.63;;;18.10;53.70;;;;;;5837715;24;20174;-85
2023/10/11 00:52:50;;;;;;;3.42;1.48;;;18.10;53.70;;;;;;5835242;24;20231;-85
2023/10/11 00:55:21;;;;;;;2.20;1.45;;;18.10;53.70;;;;;;5834385;24;20169;-84
2023/10/11 00:57:48;;;;;;;2.38;1.50;;;18.10;53.80;;;;;;5879763;24;20214;-84
2023/10/11 01:00:16;;;;;;;3.03;1.42;;;18.10;53.80;;;;;;5863826;24;20162;-84
2023/10/11 01:02:52;;;;;;;3.03;1.45;;;18.10;53.80;;;;;;5862719;24;20198;-87
2023/10/11 01:05:23;;;;;;;1.60;1.30;;;18.10;53.80;;;;;;5897573;24;20243;-84
2023/10/11 01:08:17;;;;;;;2.65;1.60;;;18.10;53.80;;;;;;5912474;24;20159;-84
2023/10/11 01:10:48;;;;;;;2.97;1.60;;;18.20;53.80;;;;;;5912512;24;20193;-85
2023/10/11 01:13:14;;;;;;;3.50;1.42;;;18.10;53.90;;;;;;5894737;24;20157;-85
2023/10/11 01:16:28;;;;;;;3.10;1.50;;;18.10;53.90;;;;;;5967570;24;20163;-85
2023/10/11 01:19:10;;;;;;;2.60;1.40;;;18.10;53.90;;;;;;5947401;24;20166;-84
2023/10/11 01:21:52;;;;;;;3.25;1.50;;;18.10;53.90;;;;;;5966379;24;20243;-85
2023/10/11 01:24:24;;;;;;;2.55;1.33;;;18.10;53.90;;;;;;5991283;24;20163;-84
2023/10/11 01:26:55;;;;;;;1.75;1.58;;;18.20;53.90;;;;;;5988273;24;20156;-85
2023/10/11 01:29:42;;;;;;;1.88;1.40;;;18.00;53.90;;;;;;5917722;24;20168;-87
2023/10/11 01:32:21;;;;;;;2.85;1.40;;;18.10;53.90;;;;;;5919125;24;20153;-85
2023/10/11 01:34:52;;;;;;;2.67;1.50;;;18.10;54.00;;;;;;5967653;24;20156;-84
2023/10/11 01:37:23;;;;;;;3.22;1.50;;;18.10;54.00;;;;;;5967859;24;20159;-86
2023/10/11 01:39:59;;;;;;;1.95;1.52;;;18.10;53.90;;;;;;5944073;24;20167;-85
2023/10/11 01:42:28;;;;;;;3.75;1.65;;;18.10;54.20;;;;;;5942151;24;20244;-84
2023/10/11 01:45:07;;;;;;;4.68;1.77;;;18.10;54.00;;;;;;5941069;24;20196;-85
2023/10/11 01:47:50;;;;;;;2.70;1.38;;;18.10;54.00;;;;;;5944866;24;20234;-85
2023/10/11 01:50:24;;;;;;;2.25;1.38;;;18.10;54.10;;;;;;5864124;24;20154;-84
2023/10/11 01:53:08;;;;;;;2.97;1.30;;;18.10;54.10;;;;;;5862676;24;20166;-85
2023/10/11 01:55:39;;;;;;;2.65;1.60;;;18.10;54.10;;;;;;5840029;24;20182;-85
2023/10/11 01:58:06;;;;;;;2.17;1.40;;;18.10;54.10;;;;;;5876707;24;20213;-85
2023/10/11 02:00:40;;;;;;;3.58;1.48;;;18.10;54.10;;;;;;5943092;24;20172;-86
2023/10/11 02:03:12;;;;;;;3.58;1.58;;;18.10;54.00;;;;;;5943569;24;20278;-85
2023/10/11 02:05:45;;;;;;;2.20;1.40;;;18.10;54.10;;;;;;5966976;24;20161;-85
2023/10/11 02:08:17;;;;;;;3.05;1.20;;;18.10;54.10;;;;;;5944552;24;20160;-85
2023/10/11 02:10:44;;;;;;;2.50;1.40;;;18.10;54.10;;;;;;5917836;24;20160;-84
2023/10/11 02:13:15;;;;;;;2.53;1.30;;;18.10;54.20;;;;;;5951269;24;20152;-84
2023/10/11 02:15:47;;;;;;;2.60;1.50;;;18.10;54.20;;;;;;5975234;23;20150;-84
2023/10/11 02:18:19;;;;;;;2.05;1.45;;;18.10;54.20;;;;;;5982835;23;20150;-85
2023/10/11 02:20:48;;;;;;;1.63;1.35;;;18.10;54.20;;;;;;6008979;23;20157;-85
2023/10/11 02:23:18;;;;;;;3.28;1.27;;;18.10;54.20;;;;;;5981152;23;20287;-85
2023/10/11 02:25:49;;;;;;;2.05;1.30;;;18.10;54.20;;;;;;6003583;23;20154;-85
2023/10/11 02:28:22;;;;;;;1.33;1.23;;;18.00;54.20;;;;;;5982480;23;20602;-85
2023/10/11 02:30:50;;;;;;;4.10;1.88;;;18.10;54.20;;;;;;6006746;23;20598;-85
2023/10/11 02:33:22;;;;;;;3.00;1.60;;;18.10;55.00;;;;;;6004088;23;20158;-84
2023/10/11 02:36:34;;;;;;;2.17;1.55;;;18.10;54.30;;;;;;6005989;23;20158;-85
2023/10/11 02:39:17;;;;;;;2.15;1.35;;;18.00;54.30;;;;;;6030542;23;20168;-85
2023/10/11 02:41:46;;;;;;;2.92;1.20;;;18.00;54.30;;;;;;6008209;23;20751;-85
2023/10/11 02:44:12;;;;;;;5.05;1.90;;;18.00;54.40;;;;;;5893285;24;20160;-84
2023/10/11 02:46:49;;;;;;;2.42;1.40;;;18.10;54.30;;;;;;5939340;24;20157;-85
2023/10/11 02:49:33;;;;;;;2.50;1.60;;;18.00;54.30;;;;;;5892889;24;20514;-84
2023/10/11 02:52:06;;;;;;;3.25;1.50;;;18.00;54.30;;;;;;5888282;24;20162;-85
2023/10/11 02:54:39;;;;;;;2.63;1.60;;;18.10;54.40;;;;;;5865673;24;20172;-85
2023/10/11 02:59:50;;;;;;;4.28;1.50;;;18.10;54.40;;;;;;5916898;24;20197;-84
2023/10/11 03:02:16;;;;;;;7.72;1.77;;;18.00;54.40;;;;;;5915492;24;20193;-84
2023/10/11 03:04:44;;;;;;;2.53;1.45;;;18.00;54.40;;;;;;5915723;24;20156;-84
2023/10/11 03:07:15;;;;;;;2.83;1.33;;;18.00;54.40;;;;;;5883765;24;20236;-84
2023/10/11 03:09:42;;;;;;;3.65;1.50;;;18.00;54.50;;;;;;5862630;24;20158;-84
2023/10/11 03:12:30;;;;;;;1.80;1.35;;;18.00;54.50;;;;;;5853595;24;20225;-84
2023/10/11 03:15:11;;;;;;;2.50;1.55;;;18.00;54.50;;;;;;5938457;24;20197;-85
2023/10/11 03:17:41;;;;;;;3.08;1.50;;;18.10;54.50;;;;;;5932046;24;20167;-84
2023/10/11 03:23:14;;;;;;;3.50;1.42;;;18.10;54.60;;;;;;5945520;24;20723;-85
2023/10/11 03:25:49;;;;;;;2.55;1.55;;;17.90;54.50;;;;;;5942927;24;20163;-84
2023/10/11 03:28:15;;;;;;;2.60;1.40;;;18.00;54.60;;;;;;5959515;24;20154;-84
2023/10/11 03:30:42;;;;;;;2.72;1.52;;;18.00;54.60;;;;;;5994437;24;20147;-85
2023/10/11 03:33:09;;;;;;;2.83;1.45;;;18.00;54.60;;;;;;6022516;23;20158;-84
2023/10/11 03:35:43;;;;;;;1.42;1.23;;;18.00;54.60;;;;;;5953423;23;20222;-84
2023/10/11 03:38:17;;;;;;;2.70;1.60;;;18.00;54.70;;;;;;6014704;23;20217;-85
2023/10/11 03:40:54;;;;;;;1.88;1.27;;;18.00;54.60;;;;;;5994666;24;20618;-84
2023/10/11 03:43:26;;;;;;;2.15;1.35;;;18.00;54.60;;;;;;5989805;23;20162;-84
2023/10/11 03:45:59;;;;;;;2.47;1.55;;;18.00;54.60;;;;;;5976608;23;20167;-84
2023/10/11 03:48:28;;;;;;;2.45;1.50;;;18.10;54.60;;;;;;5976933;23;20166;-84
2023/10/11 03:50:55;;;;;;;2.63;1.50;;;18.10;54.60;;;;;;6000838;23;20166;-84
2023/10/11 03:53:22;;;;;;;2.28;1.70;;;18.10;54.60;;;;;;5998917;23;20155;-85
2023/10/11 03:56:01;;;;;;;1.60;1.40;;;18.10;54.70;;;;;;5943042;24;20156;-85
2023/10/11 03:58:37;;;;;;;2.35;1.52;;;18.00;54.70;;;;;;5982421;24;20195;-84
2023/10/11 04:01:13;;;;;;;1.83;1.40;;;18.00;54.60;;;;;;5946369;24;20208;-84
2023/10/11 04:03:44;;;;;;;2.92;1.40;;;18.10;54.70;;;;;;5977336;24;20160;-84
2023/10/11 04:06:15;;;;;;;2.47;1.65;;;18.10;54.70;;;;;;6004558;23;20237;-84
2023/10/11 04:08:49;;;;;;;2.30;1.55;;;18.00;54.70;;;;;;5981392;23;20158;-84
2023/10/11 04:11:30;;;;;;;2.47;1.42;;;18.10;54.80;;;;;;6008936;23;20157;-84
2023/10/11 04:13:57;;;;;;;3.97;1.60;;;18.00;54.80;;;;;;5985450;23;20249;-84
2023/10/11 04:16:23;;;;;;;2.45;1.50;;;18.00;54.80;;;;;;6029137;23;20185;-84
2023/10/11 04:18:52;;;;;;;1.70;1.40;;;18.00;54.80;;;;;;6052056;23;20165;-84
2023/10/11 04:24:12;;;;;;;2.92;1.70;;;18.10;54.90;;;;;;5989012;23;20165;-85
2023/10/11 04:26:39;;;;;;;2.05;1.35;;;18.00;54.90;;;;;;5988188;23;20648;-84
2023/10/11 04:29:17;;;;;;;1.55;1.27;;;18.00;55.00;;;;;;6056913;23;20149;-84
2023/10/11 04:32:09;;;;;;;2.00;1.20;;;18.00;54.90;;;;;;6033241;23;20493;-85
2023/10/11 04:34:38;;;;;;;2.92;1.25;;;18.00;54.90;;;;;;6061025;23;20235;-85
2023/10/11 04:37:18;;;;;;;1.95;1.45;;;18.10;55.00;;;;;;6055569;23;20228;-85
2023/10/11 04:39:51;;;;;;;1.88;1.33;;;18.00;55.00;;;;;;6093194;23;20179;-85
2023/10/11 04:42:28;;;;;;;2.50;1.52;;;18.10;55.00;;;;;;6140070;23;20176;-85
2023/10/11 04:45:00;;;;;;;2.88;1.58;;;18.10;55.00;;;;;;6092173;23;20230;-85
2023/10/11 04:47:50;;;;;;;2.20;1.42;;;18.10;55.00;;;;;;6114841;23;20152;-84
2023/10/11 04:50:18;;;;;;;2.20;1.42;;;18.10;55.00;;;;;;6140753;23;20655;-84
2023/10/11 04:52:49;;;;;;;2.47;1.45;;;18.10;55.10;;;;;;6116813;23;20166;-85
2023/10/11 04:55:26;;;;;;;1.95;1.42;;;18.10;55.00;;;;;;6080491;23;20250;-84
2023/10/11 04:58:08;;;;;;;2.40;1.42;;;18.10;55.10;;;;;;6080424;23;20199;-85
2023/10/11 05:00:44;;;;;;;3.33;1.40;;;18.10;55.00;;;;;;6055631;23;20183;-84
2023/10/11 05:03:17;;;;;;;2.55;1.67;;;18.00;55.20;;;;;;6056809;23;20192;-84
2023/10/11 05:05:58;;;;;;;3.50;1.80;;;18.10;55.20;;;;;;6011737;23;20181;-84
2023/10/11 05:08:50;;;;;;;2.50;1.33;;;18.00;55.20;;;;;;6081244;23;20651;-83
2023/10/11 05:11:19;;;;;;;2.22;1.45;;;18.10;55.30;;;;;;6079955;23;20232;-84
2023/10/11 05:13:59;;;;;;;2.03;1.60;;;18.00;55.20;;;;;;6081170;23;20141;-84
2023/10/11 05:16:26;;;;;;;2.03;1.33;;;18.10;55.30;;;;;;6057722;23;20221;-84
2023/10/11 05:18:53;;;;;;;1.60;1.30;;;18.10;55.30;;;;;;6056521;23;20149;-86
2023/10/11 05:21:26;;;;;;;1.77;1.35;;;18.10;56.00;;;;;;6056484;23;20263;-85
2023/10/11 05:24:14;;;;;;;2.15;1.35;;;18.10;55.20;;;;;;6000022;23;20165;-85
2023/10/11 05:27:03;;;;;;;1.90;1.40;;;18.10;55.30;;;;;;6050853;23;20180;-85
2023/10/11 05:29:36;;;;;;;2.17;1.60;;;18.00;55.30;;;;;;6089863;23;20199;-86
2023/10/11 05:34:51;;;;;;;2.67;1.63;;;18.00;55.30;;;;;;6088971;23;20137;-85
2023/10/11 05:51:00;;;;;;;2.03;1.70;;;18.30;56.90;;;;;;6028436;23;20153;-88
2023/10/11 05:53:29;;;;;;;2.92;1.90;;;18.30;57.40;;;;;;6059995;23;20231;-85
2023/10/11 05:55:57;;;;;;;2.55;1.75;;;18.30;57.40;;;;;;6089446;23;20148;-85
2023/10/11 05:58:24;;;;;;;2.15;1.67;;;18.30;58.00;;;;;;6114858;23;20183;-85
2023/10/11 06:01:35;;;;;;;2.88;1.80;;;18.30;57.80;;;;;;6113596;23;20144;-85
2023/10/11 06:04:05;;;;;;;1.63;1.50;;;18.40;58.90;;;;;;6022261;23;20261;-88
2023/10/11 06:06:52;;;;;;;3.10;2.13;;;18.50;58.70;;;;;;6046048;23;20157;-87
2023/10/11 06:09:17;;;;;;;2.95;1.70;;;18.40;59.20;;;;;;6050187;23;20190;-85
2023/10/11 06:11:49;;;;;;;2.55;1.90;;;18.40;59.60;;;;;;6049259;23;20146;-85
2023/10/11 06:14:17;;;;;;;2.65;1.73;;;18.40;59.00;;;;;;6023996;23;20169;-86
2023/10/11 06:20:23;;;;;;;3.45;1.90;;;18.40;58.70;;;;;;6047435;23;20154;-87
2023/10/11 06:22:46;;;;;;;4.35;2.00;;;18.40;59.30;;;;;;6042560;23;20191;-88
2023/10/11 06:25:13;;;;;;;1.95;1.73;;;18.40;59.10;;;;;;6018054;23;20189;-86
2023/10/11 06:30:27;;;;;;;2.28;2.00;;;18.40;59.60;;;;;;6041266;23;20134;-88
2023/10/11 06:33:06;;;;;;;2.72;2.10;;;18.40;60.00;;;;;;6044919;23;20157;-89
2023/10/11 06:35:43;;;;;;;2.53;1.63;;;18.40;60.70;;;;;;6041179;23;20146;-87
2023/10/11 06:38:10;;;;;;;3.47;2.30;;;18.40;60.60;;;;;;6019812;23;20150;-88
2023/10/11 06:40:54;;;;;;;3.67;2.33;;;18.40;61.10;;;;;;6146447;23;20152;-87
2023/10/11 06:43:23;;;;;;;3.45;2.38;;;18.50;60.90;;;;;;6077290;23;20176;-90
2023/10/11 06:45:49;;;;;;;2.67;2.20;;;18.50;61.80;;;;;;6028568;23;20152;-88
2023/10/11 06:49:05;;;;;;;3.63;1.95;;;18.50;61.80;;;;;;6057930;23;20160;-90
2023/10/11 06:51:32;;;;;;;4.18;2.38;;;18.40;61.80;;;;;;6104081;23;20160;-88
2023/10/11 06:54:32;;;;;;;3.65;2.50;;;18.50;62.40;;;;;;6073998;23;20161;-88
2023/10/11 06:57:40;;;;;;;3.15;2.08;;;18.50;62.40;;;;;;6100708;23;20144;-90
2023/10/11 07:00:37;;;;;;;2.72;2.22;;;18.50;62.70;;;;;;5947514;24;20168;-83
2023/10/11 07:03:12;;;;;;;3.13;2.53;;;18.50;62.70;;;;;;5963216;24;20204;-84
2023/10/11 07:05:46;;;;;;;3.80;2.42;;;18.50;62.90;;;;;;5920866;24;20176;-85
2023/10/11 07:08:34;;;;;;;3.03;2.50;;;18.50;63.20;;;;;;5933985;23;20162;-84
2023/10/11 07:13:54;;;;;;;3.55;2.58;;;18.60;64.10;;;;;;5990939;24;20199;-83
2023/10/11 07:16:27;;;;;;;3.65;2.50;;;18.60;63.80;;;;;;5967438;24;20159;-83
2023/10/11 07:18:54;;;;;;;3.10;2.80;;;18.60;64.00;;;;;;5988839;24;20155;-85
2023/10/11 07:26:56;;;;;;;4.18;2.80;;;18.60;65.30;;;;;;5961276;24;20156;-83
2023/10/11 07:29:24;;;;;;;4.22;2.70;;;18.70;65.40;;;;;;5982475;24;20156;-84
2023/10/11 07:31:51;;;;;;;4.97;2.58;;;18.70;65.60;;;;;;5938255;24;20167;-84
2023/10/11 07:34:25;;;;;;;4.80;2.85;;;18.70;65.60;;;;;;5963618;24;20237;-83
2023/10/11 07:36:57;;;;;;;3.50;2.60;;;18.70;65.80;;;;;;5979877;23;20182;-85
2023/10/11 07:39:25;;;;;;;5.35;2.90;;;18.70;66.30;;;;;;6041176;23;20155;-83
2023/10/11 07:44:38;;;;;;;5.22;2.78;;;18.80;66.70;;;;;;6017770;23;20174;-85
2023/10/11 07:47:08;;;;;;;5.03;2.85;;;18.70;66.50;;;;;;6018903;23;20157;-84
2023/10/11 07:49:38;;;;;;;5.18;3.22;;;18.90;67.00;;;;;;6021600;23;20185;-84
2023/10/11 07:52:08;;;;;;;5.75;3.03;;;18.80;67.70;;;;;;5999132;23;20261;-84
2023/10/11 07:54:35;;;;;;;4.05;3.35;;;18.80;67.50;;;;;;6032965;23;20246;-83
2023/10/11 07:57:15;;;;;;;4.68;3.10;;;18.80;67.30;;;;;;6027927;23;20261;-83
2023/10/11 07:59:42;;;;;;;3.40;2.70;;;18.90;68.20;;;;;;6059709;23;20676;-82
2023/10/11 08:02:26;;;;;;;4.53;3.08;;;18.90;68.30;;;;;;6060637;23;20216;-82
2023/10/11 08:04:53;;;;;;;4.25;3.13;;;18.90;68.10;;;;;;6064728;23;20639;-82
2023/10/11 08:07:21;;;;;;;4.50;3.13;;;18.90;68.10;;;;;;6083701;23;20152;-82
2023/10/11 08:09:52;;;;;;;4.72;3.17;;;18.90;68.50;;;;;;6083776;23;20153;-82
2023/10/11 08:12:21;;;;;;;4.43;3.40;;;18.80;68.10;;;;;;6061715;23;20245;-82
2023/10/11 08:14:48;;;;;;;3.92;3.33;;;18.90;68.70;;;;;;6082029;23;20157;-83
2023/10/11 08:17:15;;;;;;;5.38;3.47;;;18.80;69.00;;;;;;6033649;23;20156;-85
2023/10/11 08:19:53;;;;;;;5.05;3.25;;;18.80;69.30;;;;;;6059183;23;20153;-82
2023/10/11 08:22:19;;;;;;;6.75;3.40;;;18.80;69.70;;;;;;6003635;23;20200;-82
2023/10/11 08:24:59;;;;;;;;;;;;;;;;;;;;;
2023/10/11 08:27:27;;;;;;;5.68;3.58;;;18.70;70.20;;;;;;5999159;23;20189;-82
2023/10/11 08:30:09;;;;;;;5.45;3.35;;;18.70;70.50;;;;;;6007086;23;20160;-82
2023/10/11 08:32:38;;;;;;;7.78;3.80;;;18.80;71.10;;;;;;6003553;23;20182;-82
2023/10/11 08:37:53;;;;;;;6.80;3.90;;;18.80;70.90;;;;;;6006889;23;20181;-83
2023/10/11 08:40:22;;;;;;;4.68;3.42;;;18.70;71.00;;;;;;6027013;23;20158;-82
2023/10/11 08:42:50;;;;;;;4.90;3.65;;;18.70;71.50;;;;;;6024647;23;20193;-86
2023/10/11 08:45:28;;;;;;;6.10;3.55;;;18.70;71.50;;;;;;6021424;23;20183;-84
2023/10/11 08:47:57;;;;;;;5.70;3.80;;;18.70;71.80;;;;;;6021930;23;20154;-83
2023/10/11 08:50:26;;;;;;;5.82;4.15;;;18.80;71.80;;;;;;6043944;23;20520;-83
2023/10/11 08:52:56;;;;;;;6.75;3.72;;;18.60;72.10;;;;;;6055734;23;20156;-83
2023/10/11 08:55:24;;;;;;;9.65;4.00;;;18.70;72.30;;;;;;6111678;23;20144;-84
2023/10/11 08:57:54;;;;;;;9.02;4.28;;;18.70;72.50;;;;;;6110690;23;20171;-85
2023/10/11 09:02:58;;;;;;;8.60;4.10;;;18.70;72.80;;;;;;6115249;23;20274;-84
2023/10/11 09:05:58;;;;;;;6.57;3.92;;;18.70;73.00;;;;;;6088112;23;20179;-84
2023/10/11 09:08:27;;;;;;;10.80;4.60;;;18.70;73.40;;;;;;6076716;23;20627;-83
2023/10/11 09:14:34;;;;;;;7.03;4.15;;;18.70;73.60;;;;;;5982442;24;20340;-83
2023/10/11 09:17:02;;;;;;;5.28;3.85;;;18.70;73.80;;;;;;5944719;24;20257;-82
2023/10/11 09:19:32;;;;;;;6.30;3.95;;;18.70;73.80;;;;;;5968538;24;20744;-83
2023/10/11 09:22:01;;;;;;;6.03;4.07;;;18.70;73.80;;;;;;5909955;24;20321;-84
2023/10/11 09:24:38;;;;;;;7.90;4.15;;;18.70;74.00;;;;;;5911597;24;20160;-86
2023/10/11 09:27:18;;;;;;;8.85;4.28;;;18.70;74.50;;;;;;5913287;24;20172;-84
2023/10/11 09:29:46;;;;;;;5.60;4.32;;;18.70;74.50;;;;;;5913126;24;20177;-84
2023/10/11 09:32:14;;;;;;;6.78;4.20;;;18.70;74.60;;;;;;5931037;23;20163;-84
2023/10/11 09:34:51;;;;;;;6.28;3.85;;;18.70;74.90;;;;;;5971196;23;20242;-85
2023/10/11 09:37:20;;;;;;;6.78;4.15;;;18.70;75.00;;;;;;5970741;23;20471;-84
2023/10/11 09:39:51;;;;;;;5.30;4.30;;;18.70;75.00;;;;;;5992698;23;20249;-85
2023/10/11 09:42:17;;;;;;;6.97;4.28;;;18.70;75.10;;;;;;6015121;23;20221;-84
2023/10/11 09:44:45;;;;;;;5.82;3.67;;;18.70;75.20;;;;;;5970022;23;20595;-84
2023/10/11 09:47:19;;;;;;;7.00;4.65;;;18.70;75.30;;;;;;5971027;23;20159;-85
2023/10/11 09:49:47;;;;;;;7.90;4.55;;;18.70;75.50;;;;;;6051024;23;20182;-84
2023/10/11 09:52:16;;;;;;;7.78;4.43;;;18.70;75.80;;;;;;6039620;23;20159;-85
2023/10/11 09:54:43;;;;;;;5.13;4.10;;;18.70;75.90;;;;;;6131556;23;20139;-86
2023/10/11 09:57:42;;;;;;;5.72;4.03;;;18.60;76.00;;;;;;6104358;23;20184;-83
2023/10/11 10:00:26;;;;;;;7.20;4.20;;;18.60;76.10;;;;;;6128817;23;20168;-83
2023/10/11 10:02:52;;;;;;;6.07;4.07;;;18.60;76.40;;;;;;6129429;23;20175;-84
2023/10/11 10:05:22;;;;;;;6.03;3.83;;;18.70;76.70;;;;;;6105844;23;20472;-85
2023/10/11 10:07:52;;;;;;;5.85;4.10;;;18.60;76.70;;;;;;6128978;23;20124;-84
2023/10/11 10:10:25;;;;;;;5.68;3.72;;;18.60;76.90;;;;;;6103699;23;20152;-84
2023/10/11 10:12:58;;;;;;;4.95;4.22;;;18.60;77.00;;;;;;6108487;23;20162;-85
2023/10/11 10:15:32;;;;;;;6.68;4.57;;;18.60;77.30;;;;;;6129191;23;20146;-86
2023/10/11 10:18:01;;;;;;;5.57;4.10;;;18.60;77.40;;;;;;6108156;23;20175;-86
2023/10/11 10:20:44;;;;;;;5.57;4.15;;;18.60;77.60;;;;;;6133642;23;20227;-88
2023/10/11 10:23:22;;;;;;;5.80;4.10;;;18.60;77.90;;;;;;6130756;23;20243;-86
2023/10/11 10:26:00;;;;;;;6.15;4.03;;;18.60;78.20;;;;;;6111763;23;20152;-83
2023/10/11 10:28:47;;;;;;;5.88;4.10;;;18.60;78.30;;;;;;6138655;23;20476;-83
2023/10/11 10:31:17;;;;;;;6.68;4.28;;;18.60;78.30;;;;;;6138827;23;20144;-83
2023/10/11 10:33:49;;;;;;;7.13;4.10;;;18.60;78.30;;;;;;6136508;23;20133;-83
2023/10/11 10:36:37;;;;;;;5.35;4.05;;;18.60;78.70;;;;;;6112392;23;20167;-85
2023/10/11 10:42:13;;;;;;;5.15;4.00;;;18.60;79.10;;;;;;6115430;23;20172;-83
2023/10/11 10:44:49;;;;;;;6.10;4.22;;;18.70;79.10;;;;;;6110406;23;20230;-84
2023/10/11 10:47:25;;;;;;;6.13;4.32;;;18.70;79.10;;;;;;6112362;23;20152;-84
2023/10/11 10:49:54;;;;;;;6.20;4.05;;;18.70;79.20;;;;;;6110252;23;20171;-85
2023/10/11 10:52:23;;;;;;;6.47;4.18;;;18.70;79.40;;;;;;6105634;23;20156;-86
2023/10/11 10:55:01;;;;;;;5.18;3.88;;;18.60;79.20;;;;;;6108452;23;20166;-86
2023/10/11 10:57:51;;;;;;;;;;;;;;;;;;;;;
2023/10/11 11:00:47;;;;;;;5.70;3.83;;;18.70;79.10;;;;;;6081111;23;20176;-87
2023/10/11 11:03:23;;;;;;;6.93;4.13;;;18.70;79.30;;;;;;6081881;23;20228;-84
2023/10/11 11:06:11;;;;;;;4.38;3.65;;;18.70;79.00;;;;;;6025272;23;20241;-86
2023/10/11 11:08:39;;;;;;;5.47;4.15;;;18.70;79.20;;;;;;6000145;23;20179;-85
2023/10/11 11:13:57;;;;;;;5.72;3.85;;;18.80;79.50;;;;;;5972634;23;20146;-85
2023/10/11 11:16:54;;;;;;;4.85;3.70;;;18.70;79.40;;;;;;5934204;24;20168;-85
2023/10/11 11:19:35;;;;;;;5.20;3.92;;;18.70;79.60;;;;;;5937273;24;20597;-86
2023/10/11 11:22:18;;;;;;;5.05;3.55;;;18.70;79.90;;;;;;5937324;24;20180;-85
2023/10/11 11:25:28;;;;;;;5.15;3.90;;;18.70;80.00;;;;;;5900592;24;20159;-86
2023/10/11 11:28:29;;;;;;;5.03;4.00;;;18.80;79.80;;;;;;5852553;24;20206;-86
2023/10/11 11:31:30;;;;;;;5.32;3.92;;;18.80;79.80;;;;;;5784986;24;20166;-85
2023/10/11 11:34:28;;;;;;;5.90;3.40;;;18.80;80.10;;;;;;5826618;24;20537;-85
2023/10/11 11:41:04;;;;;;;5.97;3.90;;;18.70;80.30;;;;;;5753394;25;20166;-85
2023/10/11 11:44:20;;;;;;;5.53;4.00;;;18.80;80.40;;;;;;5753423;25;20252;-85
2023/10/11 11:50:24;;;;;;;6.47;3.83;;;18.80;80.50;;;;;;5747940;25;20166;-85
2023/10/11 11:52:51;;;;;;;4.40;3.35;;;18.70;80.60;;;;;;5685546;25;20196;-85
2023/10/11 11:55:31;;;;;;;6.68;3.38;;;18.70;80.50;;;;;;5675390;25;20557;-85
2023/10/11 11:58:10;;;;;;;4.38;3.35;;;18.80;80.80;;;;;;5649094;25;20546;-85
2023/10/11 12:03:35;;;;;;;4.90;3.33;;;18.80;80.90;;;;;;5689374;24;20207;-85
2023/10/11 12:06:21;;;;;;;4.45;3.30;;;18.80;81.00;;;;;;5821402;24;20202;-85
2023/10/11 12:08:58;;;;;;;5.97;3.58;;;18.80;81.10;;;;;;5800458;24;20212;-87
2023/10/11 12:11:34;;;;;;;6.80;3.40;;;18.70;81.00;;;;;;5776594;24;20245;-85
2023/10/11 12:14:22;;;;;;;5.47;3.22;;;18.80;81.40;;;;;;5801166;24;20300;-86
2023/10/11 12:17:10;;;;;;;4.55;3.30;;;18.70;81.30;;;;;;5788322;24;20157;-85
2023/10/11 12:23:07;;;;;;;3.83;3.20;;;18.80;81.50;;;;;;5764788;24;20729;-87
2023/10/11 12:25:47;;;;;;;4.90;3.13;;;18.80;81.70;;;;;;5769145;24;20173;-86
2023/10/11 12:28:14;;;;;;;4.82;3.22;;;18.70;81.70;;;;;;5768128;24;20176;-86
2023/10/11 12:30:54;;;;;;;5.35;3.20;;;18.70;81.90;;;;;;5748099;24;20169;-86
2023/10/11 12:33:30;;;;;;;3.58;3.13;;;18.80;81.60;;;;;;5751438;25;20161;-86
2023/10/11 12:36:20;;;;;;;4.72;3.30;;;18.80;81.70;;;;;;5753711;24;20204;-87
2023/10/11 14:57:51;;;;;;;2.63;1.70;;;18.70;69.40;;;;;;6125731;23;20191;-83
2023/10/11 15:00:19;;;;;;;2.67;1.70;;;18.70;68.80;;;;;;6078486;23;20524;-86
2023/10/11 15:02:47;;;;;;;2.05;1.70;;;18.70;68.70;;;;;;6103182;23;20176;-85
2023/10/11 15:05:23;;;;;;;2.33;1.80;;;18.70;68.80;;;;;;6079067;23;20419;-85
2023/10/11 15:07:58;;;;;;;4.53;1.60;;;18.70;68.40;;;;;;6054524;23;20203;-86
2023/10/11 15:10:28;;;;;;;2.15;1.73;;;18.70;68.10;;;;;;6103178;23;20570;-86
2023/10/11 15:12:56;;;;;;;2.50;1.80;;;18.70;68.50;;;;;;6078628;23;20156;-85
2023/10/11 15:15:32;;;;;;;2.33;1.83;;;18.80;68.00;;;;;;6102248;23;20129;-88
2023/10/11 15:18:01;;;;;;;3.38;1.90;;;18.80;67.80;;;;;;6042366;23;20191;-86
2023/10/11 15:20:35;;;;;;;3.03;1.70;;;18.80;67.60;;;;;;6020941;23;20204;-85
2023/10/11 15:23:06;;;;;;;2.25;1.73;;;18.80;67.90;;;;;;5999809;23;20624;-86
2023/10/11 15:25:35;;;;;;;3.05;1.80;;;18.80;67.20;;;;;;5998946;23;20173;-86
2023/10/11 15:28:05;;;;;;;3.45;1.98;;;18.80;66.70;;;;;;6040370;23;20177;-84
2023/10/11 15:30:31;;;;;;;2.17;1.70;;;18.80;66.90;;;;;;6041321;23;20153;-85
2023/10/11 15:33:03;;;;;;;4.45;1.80;;;18.80;66.90;;;;;;6020692;23;20152;-85
2023/10/11 15:35:45;;;;;;;;;;;;;;;;;;;;;
2023/10/11 15:38:26;;;;;;;3.00;1.98;;;18.80;66.10;;;;;;5997446;23;20199;-84
2023/10/11 15:40:59;;;;;;;2.33;1.90;;;18.80;66.70;;;;;;6021088;23;20160;-86
2023/10/11 15:43:25;;;;;;;3.10;1.92;;;18.80;66.60;;;;;;6079625;23;20172;-85
2023/10/11 15:45:51;;;;;;;2.85;1.63;;;18.90;66.70;;;;;;6078494;23;20160;-86
2023/10/11 15:48:18;;;;;;;2.22;1.42;;;18.80;65.90;;;;;;6077960;23;20142;-84
2023/10/11 15:50:44;;;;;;;3.70;1.60;;;18.90;65.00;;;;;;6101962;23;20147;-83
2023/10/11 15:53:13;;;;;;;2.50;1.70;;;18.90;65.40;;;;;;6075487;23;20223;-85
2023/10/11 15:55:43;;;;;;;2.33;1.45;;;18.90;65.10;;;;;;6082046;23;20167;-83
2023/10/11 15:58:09;;;;;;;3.13;1.80;;;18.90;64.50;;;;;;6110019;23;20151;-87
2023/10/11 16:00:41;;;;;;;4.50;1.67;;;18.80;64.40;;;;;;6135002;23;20140;-85
2023/10/11 16:03:09;;;;;;;3.60;1.63;;;18.90;65.40;;;;;;6134840;23;20677;-86
2023/10/11 16:05:47;;;;;;;4.80;1.85;;;18.90;64.10;;;;;;6136145;23;20210;-84
2023/10/11 16:08:26;;;;;;;;;;;;;;;;;;;;;
2023/10/11 16:11:25;;;;;;;;;;;;;;;;;;;;;
2023/10/11 16:14:17;;;;;;;4.80;1.73;;;18.90;64.60;;;;;;6054069;23;20278;-86
2023/10/11 16:17:23;;;;;;;;;;;;;;;;;;;;;
2023/10/11 16:19:56;;;;;;;2.35;1.55;;;19.00;65.40;;;;;;5925914;24;20203;-85
2023/10/11 16:22:27;;;;;;;3.95;1.92;;;18.90;65.20;;;;;;5903923;24;20180;-84
2023/10/11 16:24:53;;;;;;;4.60;1.70;;;18.90;64.80;;;;;;5923476;24;20538;-81
2023/10/11 16:27:19;;;;;;;3.28;1.70;;;18.90;64.70;;;;;;5924831;24;20152;-82
2023/10/11 16:29:45;;;;;;;6.63;1.55;;;18.90;64.50;;;;;;5926060;24;20582;-82
2023/10/11 16:32:12;;;;;;;3.58;1.50;;;18.90;64.10;;;;;;5902856;24;20198;-82
2023/10/11 16:34:39;;;;;;;4.57;1.73;;;18.80;63.90;;;;;;5926239;24;20157;-84
2023/10/11 16:37:05;;;;;;;6.57;1.40;;;18.90;64.00;;;;;;5925753;24;20164;-84
2023/10/11 16:39:31;;;;;;;2.47;1.40;;;18.90;63.80;;;;;;5911538;24;20191;-82
2023/10/11 16:41:57;;;;;;;3.75;1.65;;;18.90;63.60;;;;;;5957974;24;20239;-82
2023/10/11 16:44:23;;;;;;;3.90;1.70;;;18.90;63.30;;;;;;5982110;24;20139;-82
2023/10/11 16:46:50;;;;;;;4.88;1.55;;;18.90;63.40;;;;;;5993210;23;20476;-84
2023/10/11 16:49:16;;;;;;;5.90;1.33;;;18.90;62.90;;;;;;6044106;23;20891;-82
2023/10/11 16:51:43;;;;;;;3.95;1.70;;;18.90;62.90;;;;;;6069445;23;20218;-81
2023/10/11 16:54:08;;;;;;;5.97;1.85;;;18.90;63.00;;;;;;6044366;23;20146;-83
2023/10/11 16:56:34;;;;;;;5.30;1.60;;;18.90;62.50;;;;;;6043792;23;20149;-83
2023/10/11 16:59:00;;;;;;;7.32;1.60;;;18.90;62.10;;;;;;6042269;23;20212;-85
2023/10/11 17:01:25;;;;;;;3.15;1.63;;;18.90;62.00;;;;;;6020641;23;20261;-82